Time;durP1;ratioP1;P1;durP2;ratioP2;P2;SDS_P1;SDS_P2;PMS_P1;PMS_P2;Temp;Humidity;BMP_temperature;BMP_pressure;BME280_temperature;BME280_humidity;BME280_pressure;Samples;Min_cycle;Max_cycle;Signal;HPM_P1;HPM_P2
2023/06/16 00:01:57;;;;;;;7.07;6.40;;;;;;;14.47;100.00;100575.16;5053819;28;20204;-77
2023/06/16 00:04:25;;;;;;;6.50;6.07;;;;;;;14.46;100.00;100583.94;5048956;28;20309;-77
2023/06/16 00:06:53;;;;;;;6.43;5.93;;;;;;;14.61;100.00;100554.56;5033348;28;20260;-77
2023/06/16 00:09:25;;;;;;;6.67;6.27;;;;;;;14.58;100.00;100549.41;5033790;28;20319;-77
2023/06/16 00:11:51;;;;;;;6.63;6.13;;;;;;;14.64;100.00;100530.81;5033529;28;20214;-78
2023/06/16 00:14:18;;;;;;;7.10;6.60;;;;;;;14.62;100.00;100553.66;5033891;28;20431;-78
2023/06/16 00:16:47;;;;;;;7.13;6.63;;;;;;;14.73;100.00;100544.53;5033282;28;20259;-77
2023/06/16 00:19:15;;;;;;;7.00;6.40;;;;;;;14.82;100.00;100534.56;5033089;28;20234;-75
2023/06/16 00:21:45;;;;;;;6.90;6.20;;;;;;;14.99;100.00;100541.88;5032108;28;20206;-75
2023/06/16 00:24:13;;;;;;;6.33;5.90;;;;;;;15.00;100.00;100572.47;5032077;28;20210;-75
2023/06/16 00:26:39;;;;;;;6.47;6.07;;;;;;;15.06;100.00;100581.94;5032072;28;20741;-75
2023/06/16 00:29:07;;;;;;;6.40;5.90;;;;;;;15.02;100.00;100598.72;5031694;28;20603;-74
2023/06/16 00:31:34;;;;;;;6.70;6.20;;;;;;;14.91;100.00;100614.03;5031913;28;20213;-75
2023/06/16 00:34:01;;;;;;;8.60;6.90;;;;;;;14.92;100.00;100597.31;5031453;28;20812;-75
2023/06/16 00:36:28;;;;;;;6.30;5.80;;;;;;;14.76;99.46;100631.16;5032038;28;20423;-78
2023/06/16 00:38:54;;;;;;;6.40;5.80;;;;;;;14.72;98.78;100659.28;5033273;28;20702;-78
2023/06/16 00:41:22;;;;;;;6.67;6.10;;;;;;;14.77;100.00;100635.53;5033562;28;20244;-77
2023/06/16 00:43:49;;;;;;;6.40;5.90;;;;;;;14.85;99.92;100651.88;5032835;28;20202;-77
2023/06/16 00:46:25;;;;;;;6.73;6.23;;;;;;;14.97;100.00;100624.34;5033391;28;20206;-77
2023/06/16 00:48:52;;;;;;;6.30;5.57;;;;;;;14.94;100.00;100635.78;5033371;28;20241;-77
2023/06/16 00:51:18;;;;;;;6.37;5.90;;;;;;;14.94;96.90;100690.13;5033488;28;20209;-78
2023/06/16 00:53:45;;;;;;;6.50;5.93;;;;;;;14.87;99.54;100668.47;5032784;28;20236;-77
2023/06/16 00:56:12;;;;;;;6.60;6.10;;;;;;;14.81;99.98;100652.91;5033216;28;20236;-77
2023/06/16 00:58:40;;;;;;;7.27;6.43;;;;;;;14.80;100.00;100627.50;5033087;28;20268;-77
2023/06/16 01:01:06;;;;;;;7.37;6.87;;;;;;;14.76;100.00;100615.38;5033060;28;20206;-77
2023/06/16 01:03:33;;;;;;;6.53;6.13;;;;;;;14.76;100.00;100612.75;5033984;28;20209;-77
2023/06/16 01:06:07;;;;;;;7.23;6.53;;;;;;;14.63;97.66;100635.97;5036941;28;20220;-76
2023/06/16 01:08:39;;;;;;;6.47;5.97;;;;;;;14.69;100.00;100625.25;5037179;28;20237;-77
2023/06/16 01:11:12;;;;;;;6.07;5.67;;;;;;;14.83;100.00;100615.13;5037300;28;20214;-77
2023/06/16 01:13:46;;;;;;;6.40;5.97;;;;;;;14.89;100.00;100620.19;5037125;28;20317;-77
2023/06/16 01:16:15;;;;;;;6.33;5.83;;;;;;;14.87;98.66;100642.19;5036864;28;20741;-77
2023/06/16 01:18:43;;;;;;;6.57;6.07;;;;;;;14.81;98.20;100653.75;5036955;28;20284;-77
2023/06/16 01:21:20;;;;;;;6.77;6.07;;;;;;;14.67;98.35;100656.84;5036667;28;20205;-77
2023/06/16 01:24:02;;;;;;;6.13;5.63;;;;;;;14.45;99.49;100635.63;5036488;28;20206;-76
2023/06/16 01:26:30;;;;;;;7.50;6.93;;;;;;;14.31;98.46;100656.22;5036927;28;20667;-77
2023/06/16 01:28:59;;;;;;;6.97;6.37;;;;;;;14.28;100.00;100617.75;5036601;28;20225;-77
2023/06/16 01:31:29;;;;;;;7.30;6.73;;;;;;;14.21;100.00;100602.22;5036484;28;20210;-77
2023/06/16 01:33:56;;;;;;;6.90;6.40;;;;;;;14.18;100.00;100591.84;5036659;28;20237;-77
2023/06/16 01:36:24;;;;;;;7.70;7.20;;;;;;;14.18;100.00;100605.81;5036360;28;20548;-77
2023/06/16 01:38:51;;;;;;;7.13;6.53;;;;;;;14.17;100.00;100617.25;5036666;28;20230;-76
2023/06/16 01:41:19;;;;;;;8.50;6.10;;;;;;;14.20;97.81;100637.28;5036593;28;20614;-77
2023/06/16 01:43:48;;;;;;;7.23;6.60;;;;;;;14.27;100.00;100604.66;5036695;28;20235;-76
2023/06/16 01:46:15;;;;;;;7.10;6.40;;;;;;;14.31;100.00;100606.31;5036226;28;20214;-76
2023/06/16 01:48:42;;;;;;;7.23;6.60;;;;;;;14.45;100.00;100598.00;5036161;28;20238;-77
2023/06/16 01:51:08;;;;;;;6.77;6.37;;;;;;;14.47;98.72;100612.78;5036236;28;20203;-77
2023/06/16 01:53:34;;;;;;;6.53;5.97;;;;;;;14.54;100.00;100602.06;5036179;28;20240;-77
2023/06/16 01:56:01;;;;;;;6.47;5.83;;;;;;;14.58;100.00;100598.47;5036452;28;20264;-77
2023/06/16 01:58:29;;;;;;;6.70;6.13;;;;;;;14.66;99.21;100612.22;5036231;28;20233;-77
2023/06/16 02:00:59;;;;;;;7.00;5.90;;;;;;;14.50;99.31;100617.06;5036166;28;20276;-77
2023/06/16 02:03:29;;;;;;;6.67;6.17;;;;;;;14.51;98.16;100637.19;5035973;28;20672;-77
2023/06/16 02:06:01;;;;;;;6.83;6.33;;;;;;;14.42;98.87;100640.94;5044290;28;20578;-77
2023/06/16 02:08:33;;;;;;;6.50;6.00;;;;;;;14.35;97.67;100649.94;5035586;28;20772;-77
2023/06/16 02:11:00;;;;;;;7.23;6.63;;;;;;;14.36;98.41;100632.41;5035733;28;20210;-77
2023/06/16 02:13:26;;;;;;;6.47;5.97;;;;;;;14.38;96.82;100656.88;5035640;28;20229;-77
2023/06/16 02:15:55;;;;;;;6.20;5.73;;;;;;;14.14;97.30;100666.34;5034346;28;20210;-77
2023/06/16 02:18:27;;;;;;;7.03;6.53;;;;;;;14.03;97.36;100671.91;5035732;28;20262;-77
2023/06/16 02:20:54;;;;;;;6.27;5.87;;;;;;;13.99;97.74;100657.16;5035666;28;20209;-77
2023/06/16 02:23:20;;;;;;;7.30;6.60;;;;;;;13.97;96.12;100674.72;5034895;28;20202;-77
2023/06/16 02:25:47;;;;;;;8.30;7.47;;;;;;;13.71;97.39;100660.56;5034891;28;20690;-76
2023/06/16 02:28:13;;;;;;;7.63;6.87;;;;;;;13.61;97.24;100662.59;5035555;28;20247;-76
2023/06/16 02:30:40;;;;;;;7.17;6.67;;;;;;;13.61;98.44;100656.50;5035266;28;20218;-77
2023/06/16 02:33:08;;;;;;;7.23;6.70;;;;;;;13.58;98.34;100633.84;5035129;28;20296;-77
2023/06/16 02:35:34;;;;;;;6.60;6.03;;;;;;;13.64;99.75;100622.31;5034950;28;20205;-77
2023/06/16 02:38:01;;;;;;;7.50;6.80;;;;;;;13.81;100.00;100585.94;5035043;28;20255;-77
2023/06/16 02:40:27;;;;;;;7.17;6.53;;;;;;;13.93;100.00;100587.34;5035077;28;20264;-77
2023/06/16 02:42:55;;;;;;;7.20;6.60;;;;;;;13.95;98.45;100617.00;5034639;28;20205;-76
2023/06/16 02:45:21;;;;;;;6.93;6.40;;;;;;;13.78;98.33;100624.56;5035088;28;20205;-77
2023/06/16 02:47:48;;;;;;;7.10;6.53;;;;;;;13.72;99.48;100614.25;5035061;28;20213;-77
2023/06/16 02:50:16;;;;;;;6.97;6.40;;;;;;;13.82;100.00;100600.78;5035126;28;20230;-77
2023/06/16 02:52:43;;;;;;;7.30;6.27;;;;;;;13.67;98.61;100599.47;5034589;28;20213;-77
2023/06/16 02:55:10;;;;;;;6.77;6.27;;;;;;;13.67;98.28;100623.06;5034449;28;20668;-77
2023/06/16 02:57:36;;;;;;;7.33;6.83;;;;;;;13.70;97.69;100641.38;5034454;28;20548;-77
2023/06/16 03:00:05;;;;;;;7.73;6.83;;;;;;;13.70;96.89;100657.09;5034406;28;20798;-77
2023/06/16 03:02:32;;;;;;;6.97;6.57;;;;;;;13.70;97.04;100643.97;5034276;28;20586;-77
2023/06/16 03:04:59;;;;;;;7.07;6.47;;;;;;;13.64;97.78;100644.16;5034254;28;20556;-77
2023/06/16 03:07:29;;;;;;;6.73;6.13;;;;;;;13.67;97.50;100654.56;5034237;28;20263;-76
2023/06/16 03:09:56;;;;;;;6.80;6.20;;;;;;;13.73;96.49;100652.69;5034201;28;20770;-77
2023/06/16 03:12:22;;;;;;;7.07;6.47;;;;;;;13.72;96.63;100659.69;5034332;28;20218;-77
2023/06/16 03:14:48;;;;;;;7.17;6.67;;;;;;;13.78;95.99;100670.00;5034553;28;20228;-77
2023/06/16 03:17:15;;;;;;;7.47;6.87;;;;;;;13.82;96.14;100676.03;5034518;28;20209;-77
2023/06/16 03:19:42;;;;;;;7.17;6.57;;;;;;;13.90;95.02;100697.66;5034547;28;20232;-77
2023/06/16 03:22:08;;;;;;;7.07;6.50;;;;;;;13.94;94.75;100696.66;5034136;28;20236;-76
2023/06/16 03:24:36;;;;;;;7.20;6.70;;;;;;;13.97;96.05;100699.19;5034584;28;20252;-76
2023/06/16 03:27:03;;;;;;;6.63;6.03;;;;;;;13.89;94.75;100712.56;5034007;28;20239;-75
2023/06/16 03:29:30;;;;;;;7.00;6.40;;;;;;;13.89;94.88;100709.94;5033751;28;20235;-77
2023/06/16 03:31:56;;;;;;;6.40;5.90;;;;;;;13.86;96.98;100682.91;5033989;28;20240;-77
2023/06/16 03:34:23;;;;;;;7.73;6.70;;;;;;;13.92;95.82;100695.84;5033543;28;20232;-77
2023/06/16 03:36:49;;;;;;;6.87;6.27;;;;;;;13.89;94.92;100702.06;5033536;28;20205;-77
2023/06/16 03:39:15;;;;;;;7.43;6.93;;;;;;;13.90;94.08;100711.63;5033788;28;20772;-76
2023/06/16 03:41:43;;;;;;;7.60;6.70;;;;;;;13.90;93.76;100711.63;5033789;28;20204;-77
2023/06/16 03:44:10;;;;;;;6.70;6.10;;;;;;;13.97;95.69;100714.09;5033498;28;20238;-77
2023/06/16 03:46:36;;;;;;;7.23;6.53;;;;;;;14.09;96.41;100683.09;5033819;28;20267;-76
2023/06/16 03:49:03;;;;;;;6.80;6.30;;;;;;;14.08;94.87;100696.28;5033167;28;20233;-77
2023/06/16 03:51:29;;;;;;;6.23;5.73;;;;;;;14.09;94.45;100708.47;5033386;28;20205;-77
2023/06/16 03:53:56;;;;;;;6.40;5.80;;;;;;;14.17;95.63;100698.63;5033306;28;20229;-76
2023/06/16 03:56:22;;;;;;;7.63;6.87;;;;;;;14.13;93.42;100712.72;5033505;28;20250;-76
2023/06/16 03:58:50;;;;;;;7.37;6.60;;;;;;;14.13;94.74;100717.13;5033689;28;20279;-76
2023/06/16 04:01:20;;;;;;;9.50;6.00;;;;;;;14.25;95.93;100712.38;5033307;28;20209;-76
2023/06/16 04:03:46;;;;;;;7.23;6.63;;;;;;;14.35;97.91;100662.19;5033276;28;20204;-77
2023/06/16 04:06:13;;;;;;;6.67;6.17;;;;;;;14.39;96.81;100659.44;5033246;28;20217;-76
2023/06/16 04:08:40;;;;;;;6.83;6.23;;;;;;;14.54;97.00;100651.97;5033809;28;20237;-77
2023/06/16 04:11:06;;;;;;;7.00;6.30;;;;;;;14.62;97.77;100648.22;5033206;28;20216;-77
2023/06/16 04:13:33;;;;;;;7.27;5.87;;;;;;;14.52;93.33;100715.06;5033144;28;20225;-77
2023/06/16 04:16:00;;;;;;;6.27;5.67;;;;;;;14.63;97.15;100680.63;5033418;28;20267;-77
2023/06/16 04:18:27;;;;;;;6.43;5.93;;;;;;;14.72;97.72;100655.81;5033107;28;20222;-77
2023/06/16 04:20:53;;;;;;;6.83;6.13;;;;;;;14.64;91.49;100742.75;5033500;28;20210;-77
2023/06/16 04:23:20;;;;;;;6.80;6.30;;;;;;;14.48;91.06;100787.00;5033125;28;20209;-76
2023/06/16 04:25:47;;;;;;;6.53;6.03;;;;;;;14.52;91.90;100788.63;5033609;28;20274;-77
2023/06/16 04:28:14;;;;;;;7.03;6.33;;;;;;;14.48;91.05;100798.34;5033220;28;20236;-77
2023/06/16 04:30:42;;;;;;;6.83;6.07;;;;;;;14.54;92.24;100778.06;5033195;28;20237;-77
2023/06/16 04:33:10;;;;;;;6.57;6.10;;;;;;;14.52;92.71;100772.88;5032665;28;20260;-77
2023/06/16 04:35:39;;;;;;;7.00;6.00;;;;;;;14.40;91.82;100794.25;5031283;28;20208;-77
2023/06/16 04:38:07;;;;;;;7.67;6.87;;;;;;;14.32;93.10;100770.81;5032182;28;20610;-77
2023/06/16 04:40:33;;;;;;;6.80;6.30;;;;;;;14.26;93.14;100766.59;5031958;28;20704;-76
2023/06/16 04:43:00;;;;;;;7.33;6.73;;;;;;;14.28;93.93;100741.16;5032777;28;20209;-77
2023/06/16 04:45:26;;;;;;;5.77;5.37;;;;;;;14.35;93.99;100735.72;5042467;28;20678;-76
2023/06/16 04:47:52;;;;;;;7.70;6.87;;;;;;;14.29;94.18;100723.63;5063633;22;20216;-75
2023/06/16 04:50:20;;;;;;;6.90;6.37;;;;;;;14.32;94.33;100734.06;5032048;28;20229;-75
2023/06/16 04:52:49;;;;;;;7.87;7.10;;;;;;;14.28;94.41;100733.28;5033843;28;20264;-76
2023/06/16 04:55:17;;;;;;;7.13;6.47;;;;;;;14.33;94.45;100727.03;5034842;28;20264;-76
2023/06/16 04:57:44;;;;;;;6.70;6.20;;;;;;;14.38;94.26;100718.13;5034785;28;20766;-77
2023/06/16 05:00:12;;;;;;;7.20;6.50;;;;;;;14.37;95.39;100702.41;5034808;28;20225;-77
2023/06/16 05:02:38;;;;;;;7.10;6.50;;;;;;;14.33;94.63;100696.41;5034396;28;20700;-77
2023/06/16 05:05:05;;;;;;;7.60;6.90;;;;;;;14.34;92.78;100723.53;5034818;28;20220;-77
2023/06/16 05:07:33;;;;;;;8.13;7.33;;;;;;;14.38;92.80;100727.78;5034778;28;20212;-77
2023/06/16 05:09:59;;;;;;;8.23;7.53;;;;;;;14.47;92.29;100717.00;5034094;28;20227;-77
2023/06/16 05:12:27;;;;;;;7.67;6.97;;;;;;;14.54;92.96;100738.69;5033949;28;20267;-76
2023/06/16 05:14:54;;;;;;;7.30;6.70;;;;;;;14.54;93.52;100733.41;5033402;28;20229;-77
2023/06/16 05:17:22;;;;;;;7.77;7.27;;;;;;;14.52;90.91;100777.25;5033887;28;20213;-77
2023/06/16 05:19:48;;;;;;;9.77;6.73;;;;;;;14.62;90.57;100794.50;5034019;28;20226;-77
2023/06/16 05:22:15;;;;;;;7.73;7.10;;;;;;;14.67;90.78;100793.47;5034870;28;20209;-77
2023/06/16 05:24:42;;;;;;;7.53;6.93;;;;;;;14.69;90.45;100811.81;5033558;28;20600;-77
2023/06/16 05:27:09;;;;;;;7.33;6.67;;;;;;;14.71;87.98;100836.28;5035191;28;20214;-77
2023/06/16 05:29:35;;;;;;;7.17;6.67;;;;;;;14.68;87.57;100852.97;5034362;28;20229;-77
2023/06/16 05:32:02;;;;;;;8.00;7.30;;;;;;;14.71;87.94;100852.03;5035735;28;20675;-77
2023/06/16 05:34:28;;;;;;;7.73;7.03;;;;;;;14.70;88.23;100851.16;5053801;28;20229;-77
2023/06/16 05:36:55;;;;;;;7.97;7.27;;;;;;;14.77;90.39;100827.34;5041117;28;20204;-77
2023/06/16 05:39:21;;;;;;;7.80;7.23;;;;;;;14.86;90.81;100800.78;5016102;28;20629;-77
2023/06/16 05:41:49;;;;;;;7.47;6.97;;;;;;;14.92;88.55;100834.75;5012792;28;20674;-77
2023/06/16 05:44:16;;;;;;;7.80;7.17;;;;;;;15.12;89.15;100817.50;5012124;28;20210;-77
2023/06/16 05:46:42;;;;;;;7.87;7.03;;;;;;;15.23;88.01;100837.28;5011943;28;20206;-77
2023/06/16 05:49:08;;;;;;;7.57;6.83;;;;;;;15.19;87.19;100851.44;5012842;28;20238;-77
2023/06/16 05:51:35;;;;;;;8.37;7.63;;;;;;;15.06;87.17;100868.50;5017424;28;20206;-77
2023/06/16 05:54:01;;;;;;;7.93;7.23;;;;;;;14.96;86.86;100865.28;5015990;28;20237;-77
2023/06/16 05:56:28;;;;;;;8.67;7.87;;;;;;;15.04;87.86;100865.94;5016519;28;20235;-76
2023/06/16 05:58:55;;;;;;;7.60;7.03;;;;;;;15.14;89.58;100823.56;5016276;28;20285;-76
2023/06/16 06:01:22;;;;;;;7.03;6.37;;;;;;;15.31;88.82;100831.78;5016169;28;20218;-77
2023/06/16 06:03:48;;;;;;;8.67;7.90;;;;;;;15.48;87.93;100860.19;5016269;28;20214;-77
2023/06/16 06:06:15;;;;;;;7.27;6.77;;;;;;;15.64;87.09;100871.06;5030838;28;20203;-76
2023/06/16 06:08:41;;;;;;;7.70;7.00;;;;;;;15.75;85.53;100907.59;5050033;28;20225;-77
2023/06/16 06:11:08;;;;;;;8.03;7.27;;;;;;;15.82;85.75;100923.13;5056865;28;20209;-77
2023/06/16 06:13:35;;;;;;;8.03;7.33;;;;;;;15.83;85.54;100923.97;5056388;28;20246;-77
2023/06/16 06:16:03;;;;;;;10.83;8.70;;;;;;;15.91;86.06;100914.06;5056122;28;20606;-77
2023/06/16 06:18:29;;;;;;;8.40;7.77;;;;;;;15.99;86.02;100912.03;5056198;28;20229;-77
2023/06/16 06:20:55;;;;;;;8.30;7.50;;;;;;;16.00;85.86;100910.28;5056667;28;20205;-77
2023/06/16 06:23:22;;;;;;;8.80;8.00;;;;;;;15.92;83.60;100942.13;5056400;28;20234;-77
2023/06/16 06:25:48;;;;;;;8.33;7.73;;;;;;;15.82;85.08;100938.94;5056709;28;20262;-77
2023/06/16 06:28:15;;;;;;;8.63;7.93;;;;;;;15.77;85.79;100917.16;5056254;28;20274;-77
2023/06/16 06:30:41;;;;;;;9.87;8.70;;;;;;;15.70;85.33;100912.97;5056825;28;20208;-77
2023/06/16 06:33:09;;;;;;;10.40;9.50;;;;;;;15.53;86.14;100908.25;5057856;28;20213;-77
2023/06/16 06:35:36;;;;;;;10.50;9.40;;;;;;;15.40;86.15;100885.84;5047126;28;20310;-77
2023/06/16 06:38:03;;;;;;;9.53;8.80;;;;;;;15.51;87.15;100883.75;5037199;28;20287;-77
2023/06/16 06:40:31;;;;;;;8.80;8.10;;;;;;;15.63;86.39;100878.09;5036591;28;20276;-77
2023/06/16 06:42:58;;;;;;;10.43;9.73;;;;;;;15.85;86.33;100877.41;5035848;28;20210;-77
2023/06/16 06:45:24;;;;;;;10.20;9.20;;;;;;;16.07;91.94;100812.56;5036521;28;20260;-77
2023/06/16 06:47:51;;;;;;;10.63;9.33;;;;;;;16.16;87.27;100821.91;5035553;28;20268;-77
2023/06/16 06:50:18;;;;;;;12.93;9.37;;;;;;;16.09;85.01;100891.50;5034979;28;20229;-76
2023/06/16 06:52:45;;;;;;;9.83;8.97;;;;;;;16.15;84.40;100909.72;5035087;28;20263;-76
2023/06/16 06:55:11;;;;;;;10.57;8.57;;;;;;;16.40;87.71;100857.03;5035221;28;20230;-76
2023/06/16 06:57:38;;;;;;;10.23;8.40;;;;;;;16.54;86.70;100861.78;5035237;28;20460;-77
2023/06/16 07:00:07;;;;;;;10.27;9.30;;;;;;;16.69;85.05;100881.47;5035236;28;20229;-77
2023/06/16 07:02:33;;;;;;;9.23;8.53;;;;;;;16.77;85.52;100882.03;5035375;28;20213;-76
2023/06/16 07:05:00;;;;;;;9.63;8.73;;;;;;;16.73;85.69;100876.91;5036108;28;20212;-77
2023/06/16 07:07:27;;;;;;;9.87;9.07;;;;;;;16.75;85.01;100886.50;5040225;28;20641;-76
2023/06/16 07:09:54;;;;;;;10.30;9.50;;;;;;;16.65;86.11;100875.44;5013561;28;20230;-75
2023/06/16 07:12:20;;;;;;;10.33;9.53;;;;;;;16.75;86.98;100856.63;5015423;28;20202;-76
2023/06/16 07:14:48;;;;;;;9.90;9.00;;;;;;;16.87;86.95;100849.16;5014202;28;20265;-75
2023/06/16 07:17:14;;;;;;;9.80;9.00;;;;;;;16.96;86.78;100852.34;5014379;28;20290;-76
2023/06/16 07:19:41;;;;;;;9.50;8.53;;;;;;;17.05;86.34;100850.22;5014467;28;20258;-78
2023/06/16 07:22:07;;;;;;;10.47;9.77;;;;;;;16.97;85.18;100870.75;5014388;28;20203;-79
2023/06/16 07:24:36;;;;;;;10.23;9.50;;;;;;;16.86;86.98;100850.06;5017344;28;20210;-79
2023/06/16 07:27:03;;;;;;;10.00;9.10;;;;;;;17.01;87.87;100818.75;5017147;28;20203;-77
2023/06/16 07:29:30;;;;;;;10.23;9.43;;;;;;;16.88;87.09;100823.66;5033895;28;20241;-77
2023/06/16 07:31:56;;;;;;;12.10;10.80;;;;;;;16.99;87.47;100816.19;5033308;28;20433;-77
2023/06/16 07:34:23;;;;;;;10.10;9.47;;;;;;;16.86;85.39;100855.34;5036385;28;20225;-79
2023/06/16 07:36:50;;;;;;;10.83;10.00;;;;;;;16.99;85.68;100853.09;5047973;28;20213;-75
2023/06/16 07:39:17;;;;;;;10.23;9.53;;;;;;;16.87;85.29;100848.31;5033622;28;20321;-77
2023/06/16 07:41:45;;;;;;;10.73;9.97;;;;;;;16.93;85.74;100858.63;5034131;28;20202;-74
2023/06/16 07:44:11;;;;;;;10.80;9.80;;;;;;;16.91;84.81;100864.84;5033415;28;20724;-75
2023/06/16 07:46:39;;;;;;;11.53;10.17;;;;;;;16.98;86.27;100850.50;5033261;28;20244;-75
2023/06/16 07:49:06;;;;;;;9.37;8.77;;;;;;;17.15;85.96;100836.69;5033478;28;20237;-75
2023/06/16 07:51:32;;;;;;;10.63;9.80;;;;;;;17.24;85.05;100853.00;5033770;28;20209;-75
2023/06/16 07:53:59;;;;;;;9.47;8.80;;;;;;;17.40;84.87;100858.53;5033975;28;20206;-75
2023/06/16 07:56:25;;;;;;;10.27;9.47;;;;;;;17.53;84.64;100853.59;5034555;28;20234;-77
2023/06/16 07:58:53;;;;;;;10.20;9.43;;;;;;;17.49;84.72;100865.19;5039226;28;20222;-78
2023/06/16 08:01:20;;;;;;;9.67;8.97;;;;;;;17.58;83.36;100875.38;5037116;28;20210;-77
2023/06/16 08:03:48;;;;;;;9.20;8.50;;;;;;;17.70;82.75;100895.13;5033894;28;20208;-78
2023/06/16 08:06:15;;;;;;;9.53;8.83;;;;;;;17.85;82.85;100899.78;5033862;28;20230;-77
2023/06/16 08:08:41;;;;;;;8.50;7.80;;;;;;;17.92;83.38;100902.16;5035766;28;20268;-78
2023/06/16 08:11:08;;;;;;;8.50;7.80;;;;;;;17.80;82.53;100901.75;5036706;28;20275;-79
2023/06/16 08:13:34;;;;;;;7.63;7.13;;;;;;;17.80;83.49;100901.75;5033536;28;20256;-76
2023/06/16 08:16:02;;;;;;;7.83;7.13;;;;;;;17.96;83.02;100894.06;5032583;28;20284;-75
2023/06/16 08:18:29;;;;;;;9.20;7.10;;;;;;;18.10;82.69;100893.47;5032635;28;20229;-75
2023/06/16 08:20:55;;;;;;;7.37;6.87;;;;;;;18.19;81.96;100908.06;5033918;28;20205;-76
2023/06/16 08:23:21;;;;;;;7.63;7.03;;;;;;;18.13;81.03;100927.69;5033625;28;20491;-78
2023/06/16 08:25:49;;;;;;;7.73;7.03;;;;;;;18.22;80.82;100927.31;5035568;28;20210;-79
2023/06/16 08:28:16;;;;;;;7.23;6.63;;;;;;;18.34;80.67;100940.91;5036836;28;20248;-78
2023/06/16 08:30:43;;;;;;;7.60;7.10;;;;;;;18.17;77.61;100990.03;5035464;28;20271;-76
2023/06/16 08:33:10;;;;;;;7.93;6.60;;;;;;;18.31;79.16;100994.75;5032425;28;20210;-77
2023/06/16 08:35:37;;;;;;;7.80;7.10;;;;;;;18.27;76.05;101053.94;5032181;28;20690;-77
2023/06/16 08:38:03;;;;;;;7.33;6.83;;;;;;;18.46;77.51;101049.63;5031633;28;20261;-76
2023/06/16 08:40:31;;;;;;;9.43;6.70;;;;;;;18.52;73.98;101085.53;5031844;28;20236;-76
2023/06/16 08:42:58;;;;;;;7.63;7.03;;;;;;;18.48;72.29;101120.94;5031700;28;20620;-77
2023/06/16 08:45:26;;;;;;;9.60;6.43;;;;;;;18.51;72.53;101154.31;5032656;28;20221;-76
2023/06/16 08:47:53;;;;;;;8.67;6.47;;;;;;;18.76;73.43;101141.81;5032853;28;20214;-76
2023/06/16 08:50:23;;;;;;;6.23;5.73;;;;;;;18.93;73.36;101125.28;5032471;28;20280;-76
2023/06/16 08:52:52;;;;;;;6.07;5.67;;;;;;;19.11;72.27;101141.25;5031786;28;20237;-76
2023/06/16 08:55:20;;;;;;;6.57;6.17;;;;;;;19.11;71.48;101181.84;5031718;28;20237;-76
2023/06/16 08:57:48;;;;;;;6.03;5.63;;;;;;;19.13;71.16;101195.88;5031986;28;20688;-75
2023/06/16 09:00:15;;;;;;;6.10;5.50;;;;;;;19.25;71.20;101174.16;5032786;28;20280;-75
2023/06/16 09:02:48;;;;;;;5.50;4.93;;;;;;;19.48;70.26;101179.38;5031989;28;20663;-76
2023/06/16 09:05:15;;;;;;;5.20;4.70;;;;;;;19.51;66.82;101243.66;5031929;28;20577;-76
2023/06/16 09:07:44;;;;;;;5.43;4.93;;;;;;;19.57;66.19;101303.44;5031783;28;20202;-76
2023/06/16 09:10:11;;;;;;;5.17;4.83;;;;;;;19.55;65.98;101314.09;5032085;28;20272;-75
2023/06/16 09:12:37;;;;;;;5.23;4.90;;;;;;;19.34;65.53;101323.78;5032184;28;20209;-75
2023/06/16 09:15:08;;;;;;;5.00;4.60;;;;;;;19.44;68.24;101293.38;5031958;28;20229;-75
2023/06/16 09:17:34;;;;;;;5.47;5.07;;;;;;;19.62;68.76;101264.34;5032566;28;20213;-75
2023/06/16 09:20:01;;;;;;;5.40;5.03;;;;;;;19.52;66.64;101292.16;5032111;28;20226;-76
2023/06/16 09:22:29;;;;;;;4.93;4.63;;;;;;;19.59;66.56;101291.00;5031745;28;20202;-75
2023/06/16 09:24:58;;;;;;;5.50;5.00;;;;;;;19.51;68.36;101269.28;5033609;28;20298;-76
2023/06/16 09:27:29;;;;;;;6.97;5.07;;;;;;;19.52;68.18;101248.00;5035663;28;20667;-75
2023/06/16 09:29:59;;;;;;;6.10;4.70;;;;;;;19.71;67.58;101224.25;5035455;28;20230;-76
2023/06/16 09:32:25;;;;;;;5.63;5.17;;;;;;;19.76;65.73;101262.03;5035029;28;20675;-76
2023/06/16 09:34:52;;;;;;;5.37;4.87;;;;;;;19.84;65.79;101254.59;5034708;28;20217;-76
2023/06/16 09:37:19;;;;;;;5.83;5.30;;;;;;;19.82;63.37;101297.97;5041202;28;20316;-76
2023/06/16 09:39:46;;;;;;;5.57;5.07;;;;;;;19.98;64.22;101330.81;5015202;28;20605;-76
2023/06/16 09:42:16;;;;;;;5.53;5.13;;;;;;;19.93;62.91;101316.06;5015287;28;20233;-75
2023/06/16 09:44:43;;;;;;;4.63;4.33;;;;;;;20.07;63.51;101336.66;5015284;28;20213;-76
2023/06/16 09:47:13;;;;;;;5.00;4.60;;;;;;;20.17;65.38;101301.69;5016261;28;20722;-76
2023/06/16 09:49:40;;;;;;;4.77;4.47;;;;;;;20.21;63.00;101289.16;5018341;28;20321;-76
2023/06/16 09:52:07;;;;;;;4.93;4.63;;;;;;;20.27;62.70;101338.41;5017484;28;20623;-76
2023/06/16 09:54:34;;;;;;;5.57;5.10;;;;;;;20.43;63.98;101320.84;5017775;28;20247;-75
2023/06/16 09:57:01;;;;;;;5.57;5.17;;;;;;;20.44;60.89;101346.47;5017883;28;20226;-75
2023/06/16 09:59:29;;;;;;;5.27;4.97;;;;;;;20.30;58.89;101394.81;5017516;28;20317;-75
2023/06/16 10:01:57;;;;;;;5.90;5.50;;;;;;;20.33;59.95;101410.56;5018161;28;20674;-75
2023/06/16 10:04:25;;;;;;;6.13;5.07;;;;;;;20.49;58.78;101415.19;5016646;28;20207;-75
2023/06/16 10:06:56;;;;;;;5.83;5.20;;;;;;;20.72;60.13;101427.47;5035830;28;20656;-77
2023/06/16 10:09:27;;;;;;;5.60;5.20;;;;;;;20.79;57.92;101405.91;5037361;28;20234;-75
2023/06/16 10:11:56;;;;;;;5.27;4.77;;;;;;;20.89;58.45;101434.63;5036758;28;20237;-75
2023/06/16 10:14:26;;;;;;;5.07;4.77;;;;;;;21.26;56.57;101424.97;5036378;28;20202;-75
2023/06/16 10:16:56;;;;;;;5.57;5.20;;;;;;;21.32;54.38;101485.75;5035801;28;20230;-73
2023/06/16 10:19:23;;;;;;;4.83;4.50;;;;;;;21.38;54.15;101568.66;5035535;28;20230;-76
2023/06/16 10:21:50;;;;;;;5.47;4.80;;;;;;;21.22;54.37;101603.00;5036426;28;20210;-76
2023/06/16 10:24:17;;;;;;;5.07;4.77;;;;;;;21.30;55.02;101593.84;5035146;28;20205;-73
2023/06/16 10:26:45;;;;;;;5.83;5.43;;;;;;;21.40;55.00;101565.94;5035719;28;20225;-76
2023/06/16 10:29:16;;;;;;;6.00;5.63;;;;;;;21.49;54.37;101578.81;5034947;28;20626;-75
2023/06/16 10:31:43;;;;;;;6.43;5.93;;;;;;;21.52;55.05;101567.19;5036192;28;20202;-75
2023/06/16 10:34:18;;;;;;;6.07;5.67;;;;;;;21.66;54.47;101529.34;5036936;28;20485;-76
2023/06/16 10:36:45;;;;;;;5.70;5.33;;;;;;;21.81;54.13;101548.06;5032163;28;20217;-76
2023/06/16 10:39:13;;;;;;;6.30;5.70;;;;;;;21.85;55.44;101535.50;5034845;28;20230;-76
2023/06/16 10:41:50;;;;;;;6.93;5.93;;;;;;;21.83;54.70;101518.75;5035734;28;20204;-76
2023/06/16 10:44:27;;;;;;;6.90;6.30;;;;;;;21.99;55.53;101498.44;5035123;28;20233;-76
2023/06/16 10:47:35;;;;;;;6.40;6.00;;;;;;;22.13;56.13;101463.19;5035399;28;20206;-76
2023/06/16 10:50:05;;;;;;;6.47;5.87;;;;;;;22.36;56.26;101442.56;5047700;23;20234;-76
2023/06/16 10:52:50;;;;;;;6.27;5.77;;;;;;;22.33;53.97;101459.53;5032915;28;20221;-76
2023/06/16 10:55:26;;;;;;;7.10;5.77;;;;;;;22.29;55.64;101473.91;5033637;28;20210;-76
2023/06/16 10:57:58;;;;;;;6.40;6.00;;;;;;;22.26;56.17;101468.78;5033547;28;20202;-76
2023/06/16 11:00:27;;;;;;;6.53;6.10;;;;;;;22.21;56.38;101454.81;5033758;28;20226;-77
2023/06/16 11:02:59;;;;;;;6.47;6.07;;;;;;;22.15;54.53;101455.97;5033711;28;20679;-76
2023/06/16 11:05:37;;;;;;;6.67;6.23;;;;;;;22.04;55.05;101476.06;5034205;28;20210;-77
2023/06/16 11:08:14;;;;;;;6.60;6.20;;;;;;;21.79;54.30;101488.78;5035215;28;20237;-80
2023/06/16 11:10:49;;;;;;;6.43;5.90;;;;;;;21.78;55.53;101478.22;5034602;28;20626;-77
2023/06/16 11:13:16;;;;;;;6.13;5.43;;;;;;;21.66;55.98;101449.59;5033559;28;20207;-77
2023/06/16 11:15:43;;;;;;;6.97;6.57;;;;;;;21.56;56.51;101441.22;5034085;28;20292;-77
2023/06/16 11:18:09;;;;;;;6.87;6.37;;;;;;;21.63;55.96;101405.47;5034443;28;20260;-77
2023/06/16 11:20:37;;;;;;;6.83;6.30;;;;;;;21.84;58.76;101379.56;5034200;28;20634;-77
2023/06/16 11:23:04;;;;;;;7.77;7.00;;;;;;;22.21;56.99;101351.94;5033965;28;20264;-77
2023/06/16 11:25:31;;;;;;;7.63;7.03;;;;;;;22.38;56.12;101366.19;5034665;28;20198;-77
2023/06/16 11:27:58;;;;;;;6.83;6.37;;;;;;;22.33;55.59;101386.84;5034796;28;20294;-77